Spiros — SY3056 — position and weather

sailwx.info

Track history (hours):
 
Tides and Currents Weather Stations Pressure Air Temp Water Temp Dewpoint Dewpoint Depression Visibility Wind Speed Wind Dir Waves Ship Positions

Spiros

Last reported at 2017-Dec-15 00:54 UTC. Time now 2018-Jan-21 14:58 UTC.
Position N 38°02' E 024°01'.
Warning: this ship's position is 37 days out of date.

Length 25 m.

MMSI: 240232000.

Date/timePositionNaut miles runAvg speedWind from/ knotsBaromVisibWave heightAir tempDewpointWater temp
2017-Dec-15 00:54N 38°02' E 024°01'3 8.1
2017-Dec-15 00:28N 38°00' E 024°05'6 0.9
2017-Dec-14 17:02N 38°03' E 024°13'0 2.7
2017-Dec-14 17:01N 38°03' E 024°13'0 0.8
2017-Dec-14 16:25N 38°03' E 024°12'1 2.5
2017-Dec-14 15:54N 38°03' E 024°11'8 1.0
2017-Dec-14 07:51N 38°00' E 024°02'9 1.7
2017-Dec-14 02:34N 37°52' E 024°07'1 4.3
2017-Dec-14 02:14N 37°53' E 024°09'5 2.9
2017-Dec-14 00:28N 37°54' E 024°15'4 5.5
2017-Dec-13 23:42N 37°55' E 024°10'1 4.3
2017-Dec-13 23:30N 37°55' E 024°09'4 7.5
2017-Dec-13 22:59N 37°57' E 024°06'1 0.3
2017-Dec-13 18:37N 37°58' E 024°04'0 0.1
2017-Dec-13 18:30N 37°58' E 024°04'8 4.7
2017-Dec-13 16:44N 38°04' E 024°12'2 1.8
2017-Dec-13 15:38N 38°03' E 024°10'2 6.4
2017-Dec-13 15:17N 38°02' E 024°07'2 7.5
2017-Dec-13 15:00N 38°02' E 024°05'2 0.2
2017-Dec-13 04:45N 38°01' E 024°02'2 9.0
2017-Dec-13 04:30N 37°59' E 024°04'3 6.9
2017-Dec-13 04:00N 37°57' E 024°07'4 7.9
2017-Dec-13 03:30N 37°53' E 024°09'0 0.3
2017-Dec-13 02:31N 37°53' E 024°09'0 8.9
2017-Dec-13 02:30N 37°53' E 024°09'0 0.6
2017-Dec-13 01:56N 37°53' E 024°09'9 8.4
2017-Dec-13 00:50N 38°01' E 024°03'1 1.9
2017-Dec-13 00:15N 38°02' E 024°02'5 9.1
2017-Dec-12 23:43N 38°03' E 024°08'3 4.6
2017-Dec-12 23:06N 38°04' E 024°11'0 0.1
2017-Dec-12 22:58N 38°04' E 024°11'0 0.1
2017-Dec-12 22:28N 38°04' E 024°11'0 0.3
2017-Dec-12 21:40N 38°03' E 024°11'0 0.9
2017-Dec-12 21:30N 38°04' E 024°11'0 0.4
2017-Dec-12 20:56N 38°04' E 024°11'0 0.0
2017-Dec-12 19:36N 38°04' E 024°11'0 0.1
2017-Dec-12 19:30N 38°04' E 024°11'0 0.2
2017-Dec-12 18:17N 38°04' E 024°11'0 0.0
2017-Dec-12 16:57N 38°04' E 024°11'0 0.9
2017-Dec-12 16:30N 38°04' E 024°11'0 0.5
2017-Dec-12 15:59N 38°04' E 024°11'4 5.5
2017-Dec-12 15:16N 38°03' E 024°06'2 8.0
2017-Dec-12 15:00N 38°02' E 024°03'2 0.2
2017-Dec-12 06:11N 38°01' E 024°02'8 8.9
2017-Dec-12 05:16N 37°54' E 024°08'2 3.1
2017-Dec-12 04:30N 37°52' E 024°09'0 0.2
2017-Dec-12 03:27N 37°52' E 024°09'0 0.2
2017-Dec-12 03:00N 37°52' E 024°09'0 0.4
2017-Dec-12 02:24N 37°52' E 024°09'11 6.8
2017-Dec-12 00:44N 38°01' E 024°01'2 9.1
2017-Dec-12 00:29N 38°02' E 024°04'5 3.1
2017-Dec-11 22:45N 38°04' E 024°11'0 0.8
2017-Dec-11 22:18N 38°04' E 024°11'0 0.0
2017-Dec-11 21:20N 38°04' E 024°11'0 0.2
2017-Dec-11 20:43N 38°04' E 024°11'0 0.1
2017-Dec-11 17:25N 38°04' E 024°11'0 0.4
2017-Dec-11 16:58N 38°04' E 024°11'0 0.1
2017-Dec-11 16:27N 38°04' E 024°11'0 0.5
2017-Dec-11 16:00N 38°04' E 024°10'4 7.1
2017-Dec-11 15:29N 38°02' E 024°06'4 0.4
2017-Dec-11 05:51N 38°01' E 024°02'1 0.1
2017-Dec-10 23:40N 38°02' E 024°02'1 8.9
2017-Dec-10 23:31N 38°02' E 024°04'5 8.5
2017-Dec-10 22:55N 38°04' E 024°10'0 0.1
2017-Dec-10 22:24N 38°04' E 024°10'0 0.3
2017-Dec-10 21:51N 38°04' E 024°10'0 0.1
2017-Dec-10 19:40N 38°04' E 024°10'0 0.1
2017-Dec-10 16:22N 38°04' E 024°10'3 5.1
2017-Dec-10 15:46N 38°02' E 024°07'2 8.0
2017-Dec-10 15:28N 38°02' E 024°04'2 0.0
2017-Dec-09 03:32N 38°01' E 024°02'1 8.9
2017-Dec-09 03:29N 38°01' E 024°02'7 6.7
2017-Dec-09 02:24N 37°54' E 024°06'1 1.4
2017-Dec-09 01:59N 37°54' E 024°07'1 1.0
2017-Dec-09 00:56N 37°53' E 024°08'10 5.3
2017-Dec-08 23:08N 38°02' E 024°02'1 9.1
2017-Dec-08 23:00N 38°02' E 024°04'5 8.9
2017-Dec-08 22:30N 38°04' E 024°09'1 0.9
2017-Dec-08 21:05N 38°04' E 024°11'0 0.2
2017-Dec-08 21:00N 38°04' E 024°11'0 0.2
2017-Dec-08 20:04N 38°04' E 024°11'0 0.2
2017-Dec-08 20:00N 38°04' E 024°11'0 0.0
2017-Dec-08 19:21N 38°04' E 024°11'0 0.4
2017-Dec-08 18:47N 38°04' E 024°10'0 0.3
2017-Dec-08 18:02N 38°04' E 024°11'0 4.2
2017-Dec-08 17:59N 38°04' E 024°11'0 0.2
2017-Dec-08 17:24N 38°04' E 024°11'0 0.3
2017-Dec-08 16:59N 38°04' E 024°10'0 0.2
2017-Dec-08 16:19N 38°04' E 024°11'1 2.1
2017-Dec-08 15:46N 38°03' E 024°09'3 8.8
2017-Dec-08 15:28N 38°02' E 024°06'4 0.5
2017-Dec-08 07:13N 38°01' E 024°01'0 0.0
2017-Dec-08 06:51N 38°01' E 024°01'0 0.0
2017-Dec-08 06:23N 38°01' E 024°01'1 1.5
2017-Dec-08 05:56N 38°01' E 024°01'5 8.6
2017-Dec-08 05:24N 37°57' E 024°04'5 4.4
2017-Dec-08 04:16N 37°53' E 024°08'0 0.4
2017-Dec-08 03:21N 37°53' E 024°08'0 0.4
2017-Dec-08 02:35N 37°54' E 024°08'6 2.8
2017-Dec-08 00:31N 37°59' E 024°08'0 8.9
2017-Dec-08 00:29N 37°60' E 024°08'4 8.9
2017-Dec-08 00:00N 38°04' E 024°10'0 0.5
2017-Dec-07 23:30N 38°04' E 024°11'0 0.1
2017-Dec-07 22:50N 38°04' E 024°11'0 0.2
2017-Dec-07 21:26N 38°04' E 024°11'0 0.0
2017-Dec-07 20:48N 38°03' E 024°11'0 0.1
2017-Dec-07 17:44N 38°04' E 024°11'3 1.5
2017-Dec-07 15:43N 38°01' E 024°08'4 5.9
2017-Dec-07 15:05N 38°01' E 024°04'1 6.6
2017-Dec-07 14:59N 38°01' E 024°03'1 0.1
2017-Dec-06 22:18N 38°02' E 024°01'2 8.6
2017-Dec-06 22:01N 38°02' E 024°04'5 4.0
2017-Dec-06 20:44N 38°04' E 024°11'  
Track history (hours):
 
Tides and Currents Weather Stations Pressure Air Temp Water Temp Dewpoint Dewpoint Depression Visibility Wind Speed Wind Dir Waves Ship Positions

Spiros

Last reported at 2017-Dec-15 00:54 UTC. Time now 2018-Jan-21 14:58 UTC.
Position N 38°02' E 024°01'.
Warning: this ship's position is 37 days out of date.

Length 25 m.

MMSI: 240232000.

Date/timePositionNaut miles runAvg speedWind from/ knotsBaromVisibWave heightAir tempDewpointWater temp
2017-Dec-15 00:54N 38°02' E 024°01'3 8.1
2017-Dec-15 00:28N 38°00' E 024°05'6 0.9
2017-Dec-14 17:02N 38°03' E 024°13'0 2.7
2017-Dec-14 17:01N 38°03' E 024°13'0 0.8
2017-Dec-14 16:25N 38°03' E 024°12'1 2.5
2017-Dec-14 15:54N 38°03' E 024°11'8 1.0
2017-Dec-14 07:51N 38°00' E 024°02'9 1.7
2017-Dec-14 02:34N 37°52' E 024°07'1 4.3
2017-Dec-14 02:14N 37°53' E 024°09'5 2.9
2017-Dec-14 00:28N 37°54' E 024°15'4 5.5
2017-Dec-13 23:42N 37°55' E 024°10'1 4.3
2017-Dec-13 23:30N 37°55' E 024°09'4 7.5
2017-Dec-13 22:59N 37°57' E 024°06'1 0.3
2017-Dec-13 18:37N 37°58' E 024°04'0 0.1
2017-Dec-13 18:30N 37°58' E 024°04'8 4.7
2017-Dec-13 16:44N 38°04' E 024°12'2 1.8
2017-Dec-13 15:38N 38°03' E 024°10'2 6.4
2017-Dec-13 15:17N 38°02' E 024°07'2 7.5
2017-Dec-13 15:00N 38°02' E 024°05'2 0.2
2017-Dec-13 04:45N 38°01' E 024°02'2 9.0
2017-Dec-13 04:30N 37°59' E 024°04'3 6.9
2017-Dec-13 04:00N 37°57' E 024°07'4 7.9
2017-Dec-13 03:30N 37°53' E 024°09'0 0.3
2017-Dec-13 02:31N 37°53' E 024°09'0 8.9
2017-Dec-13 02:30N 37°53' E 024°09'0 0.6
2017-Dec-13 01:56N 37°53' E 024°09'9 8.4
2017-Dec-13 00:50N 38°01' E 024°03'1 1.9
2017-Dec-13 00:15N 38°02' E 024°02'5 9.1
2017-Dec-12 23:43N 38°03' E 024°08'3 4.6
2017-Dec-12 23:06N 38°04' E 024°11'0 0.1
2017-Dec-12 22:58N 38°04' E 024°11'0 0.1
2017-Dec-12 22:28N 38°04' E 024°11'0 0.3
2017-Dec-12 21:40N 38°03' E 024°11'0 0.9
2017-Dec-12 21:30N 38°04' E 024°11'0 0.4
2017-Dec-12 20:56N 38°04' E 024°11'0 0.0
2017-Dec-12 19:36N 38°04' E 024°11'0 0.1
2017-Dec-12 19:30N 38°04' E 024°11'0 0.2
2017-Dec-12 18:17N 38°04' E 024°11'0 0.0
2017-Dec-12 16:57N 38°04' E 024°11'0 0.9
2017-Dec-12 16:30N 38°04' E 024°11'0 0.5
2017-Dec-12 15:59N 38°04' E 024°11'4 5.5
2017-Dec-12 15:16N 38°03' E 024°06'2 8.0
2017-Dec-12 15:00N 38°02' E 024°03'2 0.2
2017-Dec-12 06:11N 38°01' E 024°02'8 8.9
2017-Dec-12 05:16N 37°54' E 024°08'2 3.1
2017-Dec-12 04:30N 37°52' E 024°09'0 0.2
2017-Dec-12 03:27N 37°52' E 024°09'0 0.2
2017-Dec-12 03:00N 37°52' E 024°09'0 0.4
2017-Dec-12 02:24N 37°52' E 024°09'11 6.8
2017-Dec-12 00:44N 38°01' E 024°01'2 9.1
2017-Dec-12 00:29N 38°02' E 024°04'5 3.1
2017-Dec-11 22:45N 38°04' E 024°11'0 0.8
2017-Dec-11 22:18N 38°04' E 024°11'0 0.0
2017-Dec-11 21:20N 38°04' E 024°11'0 0.2
2017-Dec-11 20:43N 38°04' E 024°11'0 0.1
2017-Dec-11 17:25N 38°04' E 024°11'0 0.4
2017-Dec-11 16:58N 38°04' E 024°11'0 0.1
2017-Dec-11 16:27N 38°04' E 024°11'0 0.5
2017-Dec-11 16:00N 38°04' E 024°10'4 7.1
2017-Dec-11 15:29N 38°02' E 024°06'4 0.4
2017-Dec-11 05:51N 38°01' E 024°02'1 0.1
2017-Dec-10 23:40N 38°02' E 024°02'1 8.9
2017-Dec-10 23:31N 38°02' E 024°04'5 8.5
2017-Dec-10 22:55N 38°04' E 024°10'0 0.1
2017-Dec-10 22:24N 38°04' E 024°10'0 0.3
2017-Dec-10 21:51N 38°04' E 024°10'0 0.1
2017-Dec-10 19:40N 38°04' E 024°10'0 0.1
2017-Dec-10 16:22N 38°04' E 024°10'3 5.1
2017-Dec-10 15:46N 38°02' E 024°07'2 8.0
2017-Dec-10 15:28N 38°02' E 024°04'2 0.0
2017-Dec-09 03:32N 38°01' E 024°02'1 8.9
2017-Dec-09 03:29N 38°01' E 024°02'7 6.7
2017-Dec-09 02:24N 37°54' E 024°06'1 1.4
2017-Dec-09 01:59N 37°54' E 024°07'1 1.0
2017-Dec-09 00:56N 37°53' E 024°08'10 5.3
2017-Dec-08 23:08N 38°02' E 024°02'1 9.1
2017-Dec-08 23:00N 38°02' E 024°04'5 8.9
2017-Dec-08 22:30N 38°04' E 024°09'1 0.9
2017-Dec-08 21:05N 38°04' E 024°11'0 0.2
2017-Dec-08 21:00N 38°04' E 024°11'0 0.2
2017-Dec-08 20:04N 38°04' E 024°11'0 0.2
2017-Dec-08 20:00N 38°04' E 024°11'0 0.0
2017-Dec-08 19:21N 38°04' E 024°11'0 0.4
2017-Dec-08 18:47N 38°04' E 024°10'0 0.3
2017-Dec-08 18:02N 38°04' E 024°11'0 4.2
2017-Dec-08 17:59N 38°04' E 024°11'0 0.2
2017-Dec-08 17:24N 38°04' E 024°11'0 0.3
2017-Dec-08 16:59N 38°04' E 024°10'0 0.2
2017-Dec-08 16:19N 38°04' E 024°11'1 2.1
2017-Dec-08 15:46N 38°03' E 024°09'3 8.8
2017-Dec-08 15:28N 38°02' E 024°06'4 0.5
2017-Dec-08 07:13N 38°01' E 024°01'0 0.0
2017-Dec-08 06:51N 38°01' E 024°01'0 0.0
2017-Dec-08 06:23N 38°01' E 024°01'1 1.5
2017-Dec-08 05:56N 38°01' E 024°01'5 8.6
2017-Dec-08 05:24N 37°57' E 024°04'5 4.4
2017-Dec-08 04:16N 37°53' E 024°08'0 0.4
2017-Dec-08 03:21N 37°53' E 024°08'0 0.4
2017-Dec-08 02:35N 37°54' E 024°08'6 2.8
2017-Dec-08 00:31N 37°59' E 024°08'0 8.9
2017-Dec-08 00:29N 37°60' E 024°08'4 8.9
2017-Dec-08 00:00N 38°04' E 024°10'0 0.5
2017-Dec-07 23:30N 38°04' E 024°11'0 0.1
2017-Dec-07 22:50N 38°04' E 024°11'0 0.2
2017-Dec-07 21:26N 38°04' E 024°11'0 0.0
2017-Dec-07 20:48N 38°03' E 024°11'0 0.1
2017-Dec-07 17:44N 38°04' E 024°11'3 1.5
2017-Dec-07 15:43N 38°01' E 024°08'4 5.9
2017-Dec-07 15:05N 38°01' E 024°04'1 6.6
2017-Dec-07 14:59N 38°01' E 024°03'1 0.1
2017-Dec-06 22:18N 38°02' E 024°01'2 8.6
2017-Dec-06 22:01N 38°02' E 024°04'5 4.0
2017-Dec-06 20:44N 38°04' E 024°11'  

Dump ship's entire track history